Main page
METAR-TAF:

METAR-TAF

Airports :

Badajoz Airport

Badajoz, Spain

latitude: 38-53N, longitude: 006-49W, elevation: 185 m

Current weather observation

The report was made 4 hours and 56 minutes ago, at 19:00 UTC
Wind 7 kt from the West, varying between West/Southwest and Northwest
Temperature 28°C
Humidity 27%
Pressure 1015 hPa
Visibility 10 km or more
no clouds below 1500 m and no cumulonimbus

METAR: LEBZ 221900Z 27007KT 250V310 CAVOK 28/07 Q1015

Time: 01:56 (23:56 UTC)

Forecast

The report was made 56 minutes ago, at 23:00 UTC
Forecast valid from 23 at 00 UTC to 23 at 24 UTC
Wind 6 kt from the West
Visibility 10 km or more
no clouds below 1500 m and no cumulonimbus

TAF: LEBZ 222300Z 2300/2324 27006KT CAVOK TX31/2316Z TN14/2306Z

Weather observations and forecasts of more than 4000 airports (METAR and TAF reports).

The available stations are represented by yellow and red dots on the map.

Hover mouse over dot to see the name of the station.

Then click to see weather observations and forecasts.

To change the map : click on the green buttons with a black cross to zoom in, on the green button with a dash to zoom out, or on the green arrows for adjacent maps.


METAR-TAF: